RYR674 LOWW-LYNI
Flight info
| Callsign | RYR674 |
|---|---|
| Flight time | 1h 12m |
| Altitude | 37000 |
| Route | ARSIN DCT NALOX DCT NIKAB DCT BABIT DCT NEVAK DCT SOSEK |
| Aircraft | A320/M-SDE3FGHIRWY/LB1 |
Departure
| Time | 2026-05-08 17:05 |
|---|---|
| Airport | Vienna International Airport (LOWW) |
Arrival
| Time | 2026-05-08 18:17 |
|---|---|
| Airport | Niš Constantine the Great Airport (LYNI) |
| Time | Latitude | Longitude | Altitude | Speed | Heading |
|---|---|---|---|---|---|
| 2026-05-08 16:34 | 48.12128 | 16.55191 | 608 ft | 0 kts | 296° |
| 2026-05-08 16:53 | 48.12117 | 16.55222 | 608 ft | 2 kts | 298° |
| 2026-05-08 16:53 | 48.12115 | 16.55244 | 608 ft | 2 kts | 256° |
| 2026-05-08 16:53 | 48.12122 | 16.55263 | 608 ft | 2 kts | 221° |
| 2026-05-08 16:54 | 48.12130 | 16.55271 | 608 ft | 0 kts | 200° |
| 2026-05-08 16:54 | 48.12131 | 16.55271 | 608 ft | 0 kts | 199° |
| 2026-05-08 16:55 | 48.12120 | 16.55265 | 608 ft | 4 kts | 201° |
| 2026-05-08 16:56 | 48.12102 | 16.55253 | 608 ft | 4 kts | 208° |
| 2026-05-08 16:56 | 48.12076 | 16.55232 | 608 ft | 4 kts | 208° |
| 2026-05-08 16:56 | 48.12049 | 16.55211 | 608 ft | 5 kts | 208° |
| 2026-05-08 16:56 | 48.11990 | 16.55176 | 608 ft | 10 kts | 182° |
| 2026-05-08 16:57 | 48.11914 | 16.55186 | 608 ft | 11 kts | 174° |
| 2026-05-08 16:57 | 48.11853 | 16.55293 | 608 ft | 16 kts | 116° |
| 2026-05-08 16:57 | 48.11797 | 16.55465 | 608 ft | 20 kts | 116° |
| 2026-05-08 16:57 | 48.11736 | 16.55657 | 608 ft | 20 kts | 116° |
| 2026-05-08 16:58 | 48.11668 | 16.55863 | 608 ft | 23 kts | 116° |
| 2026-05-08 16:58 | 48.11597 | 16.56088 | 608 ft | 23 kts | 117° |
| 2026-05-08 16:58 | 48.11520 | 16.56319 | 608 ft | 26 kts | 117° |
| 2026-05-08 16:58 | 48.11439 | 16.56569 | 608 ft | 26 kts | 116° |
| 2026-05-08 16:59 | 48.11358 | 16.56815 | 608 ft | 26 kts | 115° |
| 2026-05-08 16:59 | 48.11277 | 16.57064 | 608 ft | 26 kts | 116° |
| 2026-05-08 16:59 | 48.11194 | 16.57316 | 608 ft | 27 kts | 116° |
| 2026-05-08 16:59 | 48.11112 | 16.57569 | 608 ft | 26 kts | 115° |
| 2026-05-08 17:00 | 48.11033 | 16.57785 | 608 ft | 19 kts | 140° |
| 2026-05-08 17:00 | 48.10887 | 16.57858 | 608 ft | 25 kts | 165° |
| 2026-05-08 17:00 | 48.10718 | 16.57928 | 608 ft | 25 kts | 164° |
| 2026-05-08 17:00 | 48.10544 | 16.58002 | 608 ft | 26 kts | 164° |
| 2026-05-08 17:01 | 48.10369 | 16.58076 | 608 ft | 26 kts | 165° |
| 2026-05-08 17:01 | 48.10188 | 16.58154 | 608 ft | 27 kts | 164° |
| 2026-05-08 17:01 | 48.10006 | 16.58231 | 608 ft | 27 kts | 164° |
| 2026-05-08 17:01 | 48.09821 | 16.58309 | 608 ft | 28 kts | 163° |
| 2026-05-08 17:02 | 48.09632 | 16.58388 | 608 ft | 28 kts | 163° |
| 2026-05-08 17:02 | 48.09441 | 16.58469 | 608 ft | 28 kts | 165° |
| 2026-05-08 17:02 | 48.09251 | 16.58550 | 608 ft | 27 kts | 165° |
| 2026-05-08 17:02 | 48.09063 | 16.58629 | 608 ft | 27 kts | 164° |
| 2026-05-08 17:03 | 48.08902 | 16.58698 | 608 ft | 18 kts | 165° |
| 2026-05-08 17:03 | 48.08804 | 16.58794 | 608 ft | 15 kts | 126° |
| 2026-05-08 17:03 | 48.08790 | 16.58930 | 608 ft | 13 kts | 80° |
| 2026-05-08 17:03 | 48.08834 | 16.59058 | 608 ft | 14 kts | 41° |
| 2026-05-08 17:04 | 48.08919 | 16.59106 | 608 ft | 11 kts | 359° |
| 2026-05-08 17:04 | 48.08949 | 16.59097 | 608 ft | 0 kts | 345° |
| 2026-05-08 17:04 | 48.08955 | 16.59094 | 608 ft | 4 kts | 345° |
| 2026-05-08 17:04 | 48.09169 | 16.59005 | 608 ft | 70 kts | 345° |
| 2026-05-08 17:05 | 48.09893 | 16.58698 | 608 ft | 142 kts | 344° |
| 2026-05-08 17:05 | 48.11033 | 16.58238 | 815 ft | 181 kts | 347° |
| 2026-05-08 17:05 | 48.12226 | 16.57721 | 1618 ft | 182 kts | 340° |
| 2026-05-08 17:05 | 48.13146 | 16.56477 | 2426 ft | 186 kts | 298° |
| 2026-05-08 17:06 | 48.13366 | 16.54523 | 2971 ft | 206 kts | 262° |
| 2026-05-08 17:06 | 48.12731 | 16.52533 | 3479 ft | 226 kts | 226° |
| 2026-05-08 17:06 | 48.11368 | 16.51300 | 4207 ft | 235 kts | 198° |
| 2026-05-08 17:06 | 48.09829 | 16.50572 | 5105 ft | 236 kts | 199° |
| 2026-05-08 17:07 | 48.08275 | 16.49816 | 6021 ft | 236 kts | 200° |
| 2026-05-08 17:07 | 48.06728 | 16.49059 | 6940 ft | 235 kts | 200° |
| 2026-05-08 17:07 | 48.05169 | 16.48243 | 7531 ft | 249 kts | 197° |
| 2026-05-08 17:07 | 48.03377 | 16.48118 | 7909 ft | 272 kts | 168° |
| 2026-05-08 17:08 | 48.01532 | 16.49096 | 8497 ft | 285 kts | 160° |
| 2026-05-08 17:08 | 47.99669 | 16.50203 | 9195 ft | 293 kts | 160° |
| 2026-05-08 17:08 | 47.97743 | 16.51343 | 9934 ft | 298 kts | 160° |
| 2026-05-08 17:08 | 47.95800 | 16.52492 | 10541 ft | 308 kts | 160° |
| 2026-05-08 17:09 | 47.93744 | 16.53705 | 10884 ft | 327 kts | 160° |
| 2026-05-08 17:09 | 47.91555 | 16.54992 | 11238 ft | 343 kts | 160° |
| 2026-05-08 17:09 | 47.89299 | 16.56320 | 11833 ft | 350 kts | 160° |
| 2026-05-08 17:09 | 47.87041 | 16.57649 | 12497 ft | 353 kts | 160° |
| 2026-05-08 17:10 | 47.84726 | 16.59009 | 13168 ft | 356 kts | 160° |
| 2026-05-08 17:10 | 47.82438 | 16.60353 | 13822 ft | 358 kts | 160° |
| 2026-05-08 17:10 | 47.80095 | 16.61726 | 14448 ft | 362 kts | 160° |
| 2026-05-08 17:10 | 47.77761 | 16.63093 | 15045 ft | 365 kts | 160° |
| 2026-05-08 17:11 | 47.75394 | 16.64477 | 15615 ft | 368 kts | 161° |
| 2026-05-08 17:11 | 47.73008 | 16.65872 | 16185 ft | 371 kts | 160° |
| 2026-05-08 17:11 | 47.70612 | 16.67271 | 16738 ft | 374 kts | 161° |
| 2026-05-08 17:11 | 47.68162 | 16.68699 | 17288 ft | 378 kts | 161° |
| 2026-05-08 17:12 | 47.65710 | 16.70128 | 17802 ft | 381 kts | 161° |
| 2026-05-08 17:12 | 47.63247 | 16.71561 | 18304 ft | 384 kts | 161° |
| 2026-05-08 17:12 | 47.60750 | 16.73013 | 18829 ft | 386 kts | 161° |
| 2026-05-08 17:12 | 47.58266 | 16.74456 | 19333 ft | 388 kts | 161° |
| 2026-05-08 17:13 | 47.55743 | 16.75918 | 19818 ft | 391 kts | 161° |
| 2026-05-08 17:13 | 47.53218 | 16.77362 | 20298 ft | 393 kts | 161° |
| 2026-05-08 17:13 | 47.50671 | 16.78923 | 20759 ft | 397 kts | 156° |
| 2026-05-08 17:13 | 47.48290 | 16.80975 | 21215 ft | 401 kts | 150° |
| 2026-05-08 17:14 | 47.45908 | 16.83179 | 21657 ft | 403 kts | 151° |
| 2026-05-08 17:14 | 47.43529 | 16.85327 | 22089 ft | 405 kts | 151° |
| 2026-05-08 17:14 | 47.41121 | 16.87458 | 22507 ft | 407 kts | 152° |
| 2026-05-08 17:14 | 47.38669 | 16.89601 | 22911 ft | 409 kts | 152° |
| 2026-05-08 17:15 | 47.36229 | 16.91719 | 23319 ft | 411 kts | 152° |
| 2026-05-08 17:15 | 47.33753 | 16.93856 | 23715 ft | 413 kts | 153° |
| 2026-05-08 17:15 | 47.31282 | 16.95982 | 24102 ft | 415 kts | 153° |
| 2026-05-08 17:15 | 47.28762 | 16.98145 | 24497 ft | 417 kts | 153° |
| 2026-05-08 17:16 | 47.26258 | 17.00290 | 24873 ft | 419 kts | 153° |
| 2026-05-08 17:16 | 47.23754 | 17.02432 | 25219 ft | 421 kts | 153° |
| 2026-05-08 17:16 | 47.21214 | 17.04602 | 25580 ft | 423 kts | 153° |
| 2026-05-08 17:16 | 47.18665 | 17.06777 | 25918 ft | 426 kts | 153° |
| 2026-05-08 17:17 | 47.16083 | 17.08976 | 26251 ft | 428 kts | 153° |
| 2026-05-08 17:17 | 47.13508 | 17.11168 | 26589 ft | 430 kts | 153° |
| 2026-05-08 17:17 | 47.10946 | 17.13346 | 26921 ft | 431 kts | 154° |
| 2026-05-08 17:17 | 47.08348 | 17.15552 | 27231 ft | 433 kts | 154° |
| 2026-05-08 17:18 | 47.05741 | 17.17762 | 27540 ft | 435 kts | 154° |
| 2026-05-08 17:18 | 47.03097 | 17.20002 | 27863 ft | 437 kts | 154° |
| 2026-05-08 17:18 | 47.00479 | 17.22218 | 28150 ft | 439 kts | 154° |
| 2026-05-08 17:18 | 46.97834 | 17.24453 | 28431 ft | 441 kts | 154° |
| 2026-05-08 17:19 | 46.95176 | 17.26697 | 28720 ft | 443 kts | 154° |
| 2026-05-08 17:19 | 46.92517 | 17.28939 | 29023 ft | 444 kts | 154° |
| 2026-05-08 17:19 | 46.89843 | 17.31191 | 29262 ft | 446 kts | 154° |
| 2026-05-08 17:19 | 46.87138 | 17.33468 | 29570 ft | 447 kts | 154° |
| 2026-05-08 17:20 | 46.84420 | 17.35751 | 29842 ft | 449 kts | 154° |
| 2026-05-08 17:20 | 46.81724 | 17.38014 | 30095 ft | 451 kts | 154° |
| 2026-05-08 17:20 | 46.78999 | 17.40298 | 30360 ft | 452 kts | 155° |
| 2026-05-08 17:20 | 46.76253 | 17.42597 | 30631 ft | 454 kts | 154° |
| 2026-05-08 17:21 | 46.73545 | 17.44862 | 30898 ft | 454 kts | 154° |
| 2026-05-08 17:21 | 46.70795 | 17.47160 | 31186 ft | 455 kts | 154° |
| 2026-05-08 17:21 | 46.68063 | 17.49439 | 31519 ft | 454 kts | 154° |
| 2026-05-08 17:21 | 46.65345 | 17.51716 | 31915 ft | 452 kts | 153° |
| 2026-05-08 17:22 | 46.62750 | 17.54374 | 32326 ft | 455 kts | 144° |
| 2026-05-08 17:22 | 46.60510 | 17.57599 | 32631 ft | 460 kts | 134° |
| 2026-05-08 17:22 | 46.58590 | 17.61342 | 32964 ft | 462 kts | 129° |
| 2026-05-08 17:22 | 46.56764 | 17.65116 | 33308 ft | 460 kts | 130° |
| 2026-05-08 17:23 | 46.54901 | 17.68958 | 33605 ft | 459 kts | 130° |
| 2026-05-08 17:23 | 46.53071 | 17.72718 | 33908 ft | 457 kts | 130° |
| 2026-05-08 17:23 | 46.51249 | 17.76451 | 34199 ft | 456 kts | 130° |
| 2026-05-08 17:23 | 46.49421 | 17.80192 | 34459 ft | 456 kts | 130° |
| 2026-05-08 17:24 | 46.47575 | 17.83961 | 34704 ft | 454 kts | 130° |
| 2026-05-08 17:24 | 46.45765 | 17.87653 | 34880 ft | 454 kts | 130° |
| 2026-05-08 17:24 | 46.43932 | 17.91386 | 35010 ft | 455 kts | 130° |
| 2026-05-08 17:24 | 46.42109 | 17.95092 | 35171 ft | 456 kts | 130° |
| 2026-05-08 17:25 | 46.40263 | 17.98842 | 35316 ft | 456 kts | 130° |
| 2026-05-08 17:25 | 46.38418 | 18.02586 | 35503 ft | 455 kts | 130° |
| 2026-05-08 17:25 | 46.36595 | 18.06278 | 35654 ft | 456 kts | 130° |
| 2026-05-08 17:25 | 46.34754 | 18.10005 | 35822 ft | 456 kts | 130° |
| 2026-05-08 17:26 | 46.32922 | 18.13705 | 35937 ft | 457 kts | 130° |
| 2026-05-08 17:26 | 46.31064 | 18.17456 | 36111 ft | 456 kts | 130° |
| 2026-05-08 17:26 | 46.29223 | 18.21167 | 36235 ft | 457 kts | 130° |
| 2026-05-08 17:26 | 46.27383 | 18.24868 | 36391 ft | 457 kts | 130° |
| 2026-05-08 17:27 | 46.25522 | 18.28611 | 36577 ft | 457 kts | 130° |
| 2026-05-08 17:27 | 46.23680 | 18.32307 | 36738 ft | 458 kts | 130° |
| 2026-05-08 17:27 | 46.21825 | 18.36027 | 36922 ft | 458 kts | 130° |
| 2026-05-08 17:27 | 46.19946 | 18.39790 | 37093 ft | 458 kts | 130° |
| 2026-05-08 17:28 | 46.16248 | 18.47178 | 37128 ft | 458 kts | 129° |
| 2026-05-08 17:28 | 46.12487 | 18.54675 | 37133 ft | 458 kts | 129° |
| 2026-05-08 17:29 | 46.08769 | 18.62064 | 37136 ft | 458 kts | 129° |
| 2026-05-08 17:29 | 46.05027 | 18.69483 | 37135 ft | 457 kts | 130° |
| 2026-05-08 17:30 | 46.01302 | 18.76846 | 37136 ft | 458 kts | 130° |
| 2026-05-08 17:30 | 45.97552 | 18.84240 | 37136 ft | 458 kts | 130° |
| 2026-05-08 17:31 | 45.93726 | 18.91515 | 37143 ft | 455 kts | 137° |
| 2026-05-08 17:31 | 45.88897 | 18.97202 | 37148 ft | 448 kts | 149° |
| 2026-05-08 17:32 | 45.83813 | 19.02307 | 37156 ft | 448 kts | 149° |
| 2026-05-08 17:32 | 45.78733 | 19.07409 | 37154 ft | 448 kts | 149° |
| 2026-05-08 17:33 | 45.73617 | 19.12540 | 37149 ft | 448 kts | 149° |
| 2026-05-08 17:33 | 45.68544 | 19.17616 | 37149 ft | 447 kts | 149° |
| 2026-05-08 17:34 | 45.63455 | 19.22697 | 37150 ft | 447 kts | 149° |
| 2026-05-08 17:34 | 45.58347 | 19.27785 | 37147 ft | 447 kts | 149° |
| 2026-05-08 17:35 | 45.53273 | 19.32827 | 37142 ft | 447 kts | 149° |
| 2026-05-08 17:35 | 45.48176 | 19.37881 | 37144 ft | 447 kts | 149° |
| 2026-05-08 17:36 | 45.43086 | 19.42918 | 37144 ft | 447 kts | 149° |
| 2026-05-08 17:36 | 45.37970 | 19.47968 | 37145 ft | 447 kts | 149° |
| 2026-05-08 17:37 | 45.32888 | 19.52973 | 37146 ft | 447 kts | 149° |
| 2026-05-08 17:37 | 45.27788 | 19.57985 | 37149 ft | 447 kts | 148° |
| 2026-05-08 17:38 | 45.22671 | 19.63002 | 37145 ft | 447 kts | 149° |
| 2026-05-08 17:38 | 45.17567 | 19.67997 | 37148 ft | 447 kts | 149° |
| 2026-05-08 17:39 | 45.12478 | 19.72964 | 37145 ft | 446 kts | 149° |
| 2026-05-08 17:39 | 45.07367 | 19.77942 | 37141 ft | 446 kts | 149° |
| 2026-05-08 17:40 | 45.02274 | 19.82893 | 37146 ft | 446 kts | 149° |
| 2026-05-08 17:40 | 44.97163 | 19.87848 | 37143 ft | 446 kts | 149° |
| 2026-05-08 17:41 | 44.92059 | 19.92787 | 37146 ft | 446 kts | 149° |
| 2026-05-08 17:41 | 44.86926 | 19.97743 | 37147 ft | 446 kts | 149° |
| 2026-05-08 17:42 | 44.81808 | 20.02674 | 37150 ft | 446 kts | 149° |
| 2026-05-08 17:42 | 44.76656 | 20.07627 | 37145 ft | 446 kts | 149° |
| 2026-05-08 17:43 | 44.71529 | 20.12544 | 37147 ft | 447 kts | 149° |
| 2026-05-08 17:43 | 44.66436 | 20.17418 | 37149 ft | 447 kts | 149° |
| 2026-05-08 17:44 | 44.61290 | 20.22332 | 37142 ft | 447 kts | 148° |
| 2026-05-08 17:44 | 44.56148 | 20.27232 | 37143 ft | 447 kts | 149° |
| 2026-05-08 17:45 | 44.53589 | 20.29667 | 36912 ft | 449 kts | 149° |
| 2026-05-08 17:45 | 44.51000 | 20.32127 | 36280 ft | 452 kts | 148° |
| 2026-05-08 17:45 | 44.48389 | 20.34605 | 35615 ft | 455 kts | 148° |
| 2026-05-08 17:45 | 44.45770 | 20.37089 | 34972 ft | 456 kts | 148° |
| 2026-05-08 17:46 | 44.43164 | 20.39558 | 34338 ft | 456 kts | 148° |
| 2026-05-08 17:46 | 44.40569 | 20.42013 | 33547 ft | 457 kts | 148° |
| 2026-05-08 17:46 | 44.37910 | 20.44526 | 32592 ft | 462 kts | 148° |
| 2026-05-08 17:46 | 44.35268 | 20.47020 | 31581 ft | 467 kts | 147° |
| 2026-05-08 17:47 | 44.32589 | 20.49546 | 30695 ft | 468 kts | 147° |
| 2026-05-08 17:47 | 44.29870 | 20.52108 | 30067 ft | 465 kts | 147° |
| 2026-05-08 17:47 | 44.27255 | 20.54569 | 29712 ft | 457 kts | 147° |
| 2026-05-08 17:47 | 44.25488 | 20.56231 | 29400 ft | 452 kts | 147° |
| 2026-05-08 17:48 | 44.22075 | 20.59436 | 28744 ft | 440 kts | 147° |
| 2026-05-08 17:48 | 44.19501 | 20.61668 | 28189 ft | 430 kts | 150° |
| 2026-05-08 17:48 | 44.16969 | 20.63746 | 27625 ft | 422 kts | 150° |
| 2026-05-08 17:48 | 44.14457 | 20.65813 | 27049 ft | 415 kts | 150° |
| 2026-05-08 17:49 | 44.11989 | 20.67842 | 26468 ft | 409 kts | 150° |
| 2026-05-08 17:49 | 44.09581 | 20.69819 | 25889 ft | 403 kts | 150° |
| 2026-05-08 17:49 | 44.07176 | 20.71792 | 25302 ft | 398 kts | 150° |
| 2026-05-08 17:49 | 44.04803 | 20.73737 | 24721 ft | 396 kts | 150° |
| 2026-05-08 17:50 | 44.02441 | 20.75670 | 24112 ft | 397 kts | 150° |
| 2026-05-08 17:50 | 44.00075 | 20.77605 | 23509 ft | 397 kts | 150° |
| 2026-05-08 17:50 | 43.97704 | 20.79542 | 22906 ft | 396 kts | 150° |
| 2026-05-08 17:50 | 43.95324 | 20.81485 | 22311 ft | 396 kts | 149° |
| 2026-05-08 17:51 | 43.92974 | 20.83402 | 21713 ft | 396 kts | 149° |
| 2026-05-08 17:51 | 43.90604 | 20.85333 | 21107 ft | 395 kts | 149° |
| 2026-05-08 17:51 | 43.88246 | 20.87253 | 20505 ft | 394 kts | 149° |
| 2026-05-08 17:51 | 43.85864 | 20.89190 | 19889 ft | 393 kts | 149° |
| 2026-05-08 17:52 | 43.83498 | 20.91113 | 19217 ft | 394 kts | 149° |
| 2026-05-08 17:52 | 43.81163 | 20.93008 | 18524 ft | 395 kts | 149° |
| 2026-05-08 17:52 | 43.76769 | 20.97488 | 17148 ft | 395 kts | 132° |
| 2026-05-08 17:53 | 43.74934 | 21.00304 | 16430 ft | 396 kts | 131° |
| 2026-05-08 17:53 | 43.73092 | 21.03139 | 15710 ft | 396 kts | 131° |
| 2026-05-08 17:53 | 43.71266 | 21.05941 | 15008 ft | 393 kts | 131° |
| 2026-05-08 17:53 | 43.69455 | 21.08717 | 14331 ft | 384 kts | 131° |
| 2026-05-08 17:54 | 43.67693 | 21.11415 | 13682 ft | 374 kts | 131° |
| 2026-05-08 17:54 | 43.65966 | 21.14057 | 13030 ft | 366 kts | 131° |
| 2026-05-08 17:54 | 43.64300 | 21.16603 | 12382 ft | 359 kts | 130° |
| 2026-05-08 17:54 | 43.62642 | 21.19134 | 11717 ft | 352 kts | 130° |
| 2026-05-08 17:55 | 43.61012 | 21.21619 | 11068 ft | 346 kts | 130° |
| 2026-05-08 17:55 | 43.59421 | 21.24042 | 10459 ft | 339 kts | 130° |
| 2026-05-08 17:55 | 43.57860 | 21.26417 | 10100 ft | 325 kts | 130° |
| 2026-05-08 17:55 | 43.56385 | 21.28661 | 9973 ft | 306 kts | 130° |
| 2026-05-08 17:56 | 43.54995 | 21.30773 | 9865 ft | 288 kts | 130° |
| 2026-05-08 17:56 | 43.53702 | 21.32834 | 9480 ft | 282 kts | 126° |
| 2026-05-08 17:56 | 43.52549 | 21.34973 | 9003 ft | 280 kts | 124° |
| 2026-05-08 17:56 | 43.51391 | 21.37112 | 8508 ft | 278 kts | 125° |
| 2026-05-08 17:57 | 43.50235 | 21.39242 | 8018 ft | 277 kts | 124° |
| 2026-05-08 17:57 | 43.49083 | 21.41363 | 7540 ft | 275 kts | 125° |
| 2026-05-08 17:57 | 43.47964 | 21.43420 | 7275 ft | 265 kts | 125° |
| 2026-05-08 17:57 | 43.46860 | 21.45451 | 6999 ft | 257 kts | 125° |
| 2026-05-08 17:58 | 43.45818 | 21.47384 | 6716 ft | 250 kts | 122° |
| 2026-05-08 17:58 | 43.45039 | 21.49497 | 6390 ft | 245 kts | 111° |
| 2026-05-08 17:58 | 43.44386 | 21.51622 | 6050 ft | 242 kts | 112° |
| 2026-05-08 17:58 | 43.43721 | 21.53736 | 5704 ft | 240 kts | 112° |
| 2026-05-08 17:59 | 43.43057 | 21.55849 | 5340 ft | 239 kts | 112° |
| 2026-05-08 17:59 | 43.42392 | 21.57961 | 4959 ft | 239 kts | 112° |
| 2026-05-08 17:59 | 43.41745 | 21.60017 | 4739 ft | 233 kts | 112° |
| 2026-05-08 17:59 | 43.41103 | 21.62054 | 4564 ft | 229 kts | 112° |
| 2026-05-08 18:00 | 43.40468 | 21.64069 | 4273 ft | 231 kts | 112° |
| 2026-05-08 18:00 | 43.39178 | 21.68153 | 3558 ft | 230 kts | 113° |
| 2026-05-08 18:00 | 43.38547 | 21.70147 | 3207 ft | 224 kts | 113° |
| 2026-05-08 18:01 | 43.37936 | 21.72080 | 2868 ft | 219 kts | 113° |
| 2026-05-08 18:01 | 43.37331 | 21.73991 | 2527 ft | 215 kts | 113° |
| 2026-05-08 18:01 | 43.36746 | 21.75841 | 2209 ft | 209 kts | 114° |
| 2026-05-08 18:01 | 43.36187 | 21.77604 | 1887 ft | 196 kts | 114° |
| 2026-05-08 18:02 | 43.35655 | 21.79283 | 1577 ft | 186 kts | 114° |
| 2026-05-08 18:02 | 43.35318 | 21.80344 | 1419 ft | 181 kts | 114° |
| 2026-05-08 18:02 | 43.34623 | 21.82509 | 2215 ft | 190 kts | 114° |
| 2026-05-08 18:02 | 43.34118 | 21.84104 | 3107 ft | 179 kts | 113° |
| 2026-05-08 18:03 | 43.33484 | 21.85527 | 3807 ft | 179 kts | 134° |
| 2026-05-08 18:03 | 43.32380 | 21.86491 | 4175 ft | 198 kts | 161° |
| 2026-05-08 18:03 | 43.30905 | 21.86617 | 4262 ft | 226 kts | 194° |
| 2026-05-08 18:03 | 43.29557 | 21.85574 | 4297 ft | 227 kts | 227° |
| 2026-05-08 18:04 | 43.28686 | 21.83754 | 4302 ft | 227 kts | 240° |
| 2026-05-08 18:04 | 43.27900 | 21.81888 | 4460 ft | 230 kts | 240° |
| 2026-05-08 18:04 | 43.27098 | 21.79969 | 4666 ft | 230 kts | 240° |
| 2026-05-08 18:04 | 43.26304 | 21.78040 | 4871 ft | 232 kts | 243° |
| 2026-05-08 18:05 | 43.25909 | 21.75892 | 4980 ft | 248 kts | 273° |
| 2026-05-08 18:05 | 43.26339 | 21.73478 | 4997 ft | 263 kts | 292° |
| 2026-05-08 18:05 | 43.27052 | 21.71168 | 4992 ft | 264 kts | 294° |
| 2026-05-08 18:05 | 43.27786 | 21.68862 | 4988 ft | 265 kts | 294° |
| 2026-05-08 18:06 | 43.28524 | 21.66530 | 4990 ft | 262 kts | 294° |
| 2026-05-08 18:06 | 43.29243 | 21.64244 | 5008 ft | 261 kts | 294° |
| 2026-05-08 18:06 | 43.29974 | 21.61917 | 5254 ft | 263 kts | 294° |
| 2026-05-08 18:06 | 43.30702 | 21.59602 | 5710 ft | 267 kts | 294° |
| 2026-05-08 18:07 | 43.31424 | 21.57307 | 6127 ft | 254 kts | 295° |
| 2026-05-08 18:07 | 43.32148 | 21.55107 | 6261 ft | 253 kts | 294° |
| 2026-05-08 18:07 | 43.32838 | 21.52883 | 6285 ft | 252 kts | 294° |
| 2026-05-08 18:07 | 43.33504 | 21.50712 | 6289 ft | 244 kts | 294° |
| 2026-05-08 18:08 | 43.34153 | 21.48576 | 6289 ft | 243 kts | 294° |
| 2026-05-08 18:08 | 43.34814 | 21.46405 | 6290 ft | 243 kts | 294° |
| 2026-05-08 18:08 | 43.35466 | 21.44275 | 6294 ft | 245 kts | 294° |
| 2026-05-08 18:08 | 43.36144 | 21.42077 | 6295 ft | 245 kts | 294° |
| 2026-05-08 18:09 | 43.36900 | 21.40001 | 6293 ft | 243 kts | 311° |
| 2026-05-08 18:09 | 43.38202 | 21.38603 | 6281 ft | 236 kts | 343° |
| 2026-05-08 18:09 | 43.39781 | 21.38339 | 6188 ft | 223 kts | 15° |
| 2026-05-08 18:09 | 43.41130 | 21.39251 | 6031 ft | 212 kts | 49° |
| 2026-05-08 18:10 | 43.41998 | 21.40875 | 5794 ft | 211 kts | 57° |
| 2026-05-08 18:10 | 43.42832 | 21.42509 | 5578 ft | 210 kts | 56° |
| 2026-05-08 18:10 | 43.43684 | 21.44160 | 5360 ft | 210 kts | 56° |
| 2026-05-08 18:10 | 43.44538 | 21.45820 | 5128 ft | 210 kts | 56° |
| 2026-05-08 18:11 | 43.45160 | 21.47575 | 5022 ft | 204 kts | 82° |
| 2026-05-08 18:11 | 43.45050 | 21.49486 | 5007 ft | 201 kts | 110° |
| 2026-05-08 18:11 | 43.44473 | 21.51244 | 5002 ft | 199 kts | 112° |
| 2026-05-08 18:11 | 43.43933 | 21.52972 | 4999 ft | 198 kts | 112° |
| 2026-05-08 18:12 | 43.43382 | 21.54743 | 5002 ft | 198 kts | 112° |
| 2026-05-08 18:12 | 43.42841 | 21.56473 | 5003 ft | 198 kts | 112° |
| 2026-05-08 18:12 | 43.42296 | 21.58216 | 5003 ft | 199 kts | 112° |
| 2026-05-08 18:12 | 43.41747 | 21.59966 | 4912 ft | 201 kts | 112° |
| 2026-05-08 18:13 | 43.41191 | 21.61743 | 4678 ft | 201 kts | 112° |
| 2026-05-08 18:13 | 43.40648 | 21.63469 | 4381 ft | 195 kts | 112° |
| 2026-05-08 18:13 | 43.40114 | 21.65166 | 4072 ft | 190 kts | 112° |
| 2026-05-08 18:13 | 43.39588 | 21.66834 | 3777 ft | 186 kts | 112° |
| 2026-05-08 18:14 | 43.39084 | 21.68432 | 3496 ft | 182 kts | 112° |
| 2026-05-08 18:14 | 43.38581 | 21.70026 | 3216 ft | 179 kts | 113° |
| 2026-05-08 18:14 | 43.38085 | 21.71595 | 2940 ft | 176 kts | 112° |
| 2026-05-08 18:14 | 43.37602 | 21.73123 | 2676 ft | 176 kts | 113° |
| 2026-05-08 18:15 | 43.37110 | 21.74679 | 2406 ft | 177 kts | 113° |
| 2026-05-08 18:15 | 43.36613 | 21.76246 | 2129 ft | 175 kts | 114° |
| 2026-05-08 18:15 | 43.36149 | 21.77713 | 1859 ft | 160 kts | 114° |
| 2026-05-08 18:15 | 43.35724 | 21.79065 | 1573 ft | 150 kts | 114° |
| 2026-05-08 18:16 | 43.35316 | 21.80351 | 1343 ft | 147 kts | 115° |
| 2026-05-08 18:16 | 43.34902 | 21.81638 | 1173 ft | 148 kts | 114° |
| 2026-05-08 18:16 | 43.34493 | 21.82935 | 974 ft | 147 kts | 114° |
| 2026-05-08 18:16 | 43.34093 | 21.84220 | 709 ft | 145 kts | 114° |
| 2026-05-08 18:17 | 43.33709 | 21.85423 | 647 ft | 116 kts | 113° |
| 2026-05-08 18:17 | 43.33469 | 21.86176 | 652 ft | 59 kts | 112° |
| 2026-05-08 18:17 | 43.33363 | 21.86515 | 654 ft | 15 kts | 113° |
| 2026-05-08 18:17 | 43.33360 | 21.86608 | 655 ft | 5 kts | 49° |
| 2026-05-08 18:18 | 43.33384 | 21.86632 | 656 ft | 7 kts | 22° |
| 2026-05-08 18:18 | 43.33426 | 21.86656 | 658 ft | 5 kts | 25° |
| 2026-05-08 18:18 | 43.33469 | 21.86683 | 659 ft | 8 kts | 22° |
| 2026-05-08 18:18 | 43.33541 | 21.86698 | 660 ft | 12 kts | 348° |
| 2026-05-08 18:19 | 43.33616 | 21.86652 | 661 ft | 8 kts | 321° |
| 2026-05-08 18:19 | 43.33650 | 21.86567 | 660 ft | 12 kts | 294° |
| 2026-05-08 18:19 | 43.33672 | 21.86514 | 660 ft | 1 kts | 352° |
| 2026-05-08 18:19 | 43.33684 | 21.86525 | 660 ft | 3 kts | 43° |
| 2026-05-08 18:20 | 43.33694 | 21.86538 | 661 ft | 0 kts | 43° |
| 2026-05-08 18:20 | 43.33701 | 21.86548 | 661 ft | 1 kts | 53° |
| 2026-05-08 18:20 | 43.33702 | 21.86561 | 662 ft | 2 kts | 83° |
| 2026-05-08 18:20 | 43.33703 | 21.86570 | 662 ft | 0 kts | 80° |
| 2026-05-08 18:21 | 43.33703 | 21.86571 | 662 ft | 0 kts | 79° |